This is the latest recevied weather packets stored in our database for station/object DL4NBA-1. If no packets are shown the sender has not sent any weather packets the latest 10 day(s).
| Time | Temp. | Humidity | Pressure | Rain* | Wind** | Luminosity | Snow |
|---|---|---|---|---|---|---|---|
| 1777893552 | 22.78° C | - | - | 0 mm | 3.13 m/s, 218° | - | - |
| 1777892951 | 23.89° C | - | - | 0 mm | 2.68 m/s, 142° | - | - |
| 1777892653 | 24.44° C | - | - | 0 mm | 0.89 m/s, 153° | - | - |
| 1777892354 | 22.22° C | - | - | 0 mm | 2.68 m/s, 180° | - | - |
| 1777892055 | 22.22° C | - | - | 0 mm | 2.24 m/s, 238° | - | - |
| 1777891751 | 22.22° C | - | - | 0 mm | 1.79 m/s, 273° | - | - |
| 1777891453 | 22.78° C | - | - | 0 mm | 0 m/s | - | - |
| 1777891154 | 22.78° C | - | - | 0 mm | 0.45 m/s, 232° | - | - |
| 1777890855 | 21.67° C | - | - | 0 mm | 1.79 m/s, 304° | - | - |
| 1777890557 | 21.67° C | - | - | 0 mm | 1.79 m/s, 243° | - | - |
| 1777890254 | 22.22° C | - | - | 0 mm | 2.68 m/s, 262° | - | - |
| 1777889955 | 23.33° C | - | - | 0 mm | 2.24 m/s, 200° | - | - |
| 1777889656 | 25° C | - | - | 0 mm | 3.13 m/s, 135° | - | - |
| 1777889357 | 23.89° C | - | - | 0 mm | 1.34 m/s, 129° | - | - |
| 1777889058 | 23.33° C | - | - | 0 mm | 0.89 m/s, 186° | - | - |
| 1777888756 | 22.22° C | - | - | 0 mm | 2.68 m/s, 146° | - | - |
| 1777888159 | 22.78° C | - | - | 0 mm | 0.89 m/s, 160° | - | - |
| 1777887860 | 22.22° C | - | - | 0 mm | 0.45 m/s, 274° | - | - |
| 1777886962 | 22.78° C | - | - | 0 mm | 2.68 m/s, 159° | - | - |
| 1777886663 | 25° C | - | - | 0 mm | 2.24 m/s, 129° | - | - |
| 1777886364 | 21.67° C | - | - | 0 mm | 0.89 m/s, 235° | - | - |
| 1777886066 | 22.22° C | - | - | 0 mm | 1.79 m/s, 165° | - | - |
| 1777885764 | 21.11° C | - | - | 0 mm | 0.45 m/s, 262° | - | - |
| 1777885465 | 20.56° C | - | - | 0 mm | 1.34 m/s, 225° | - | - |
| 1777885166 | 21.67° C | - | - | 0 mm | 1.34 m/s, 146° | - | - |
* Rain latest hour (hover to see other rain measurements)
** Current wind speed in m/s (hover to see current wind gust speed)